Terminal Aerodrome Forecast
Issued by NWS Missoula, MT

Home | Current Version | Previous Version | Text Only | Print | Product List | Glossary On
Versions: 1 2 3 4 5 6 7 8 9 10 11 12 13 14
000
FTUS45 KMSO 210541
TAFGPI
TAF
KGPI 210541Z 2106/2206 22005KT P6SM VCSH BKN040 OVC060
     FM211200 18005KT P6SM OVC050
     FM212100 18009KT P6SM VCSH OVC040=

USA.gov is the U.S. government's official web portal to all federal, state and local government web resources and services.